sensor_id;sensor_type;location;lat;lon;timestamp;temperature;humidity
45233;DHT22;30969;51.052;17.056;2023-10-09T00:01:02;12.20;57.10
45233;DHT22;30969;51.052;17.056;2023-10-09T00:06:19;12.10;57.50
45233;DHT22;30969;51.052;17.056;2023-10-09T00:11:33;12.10;57.80
45233;DHT22;30969;51.052;17.056;2023-10-09T00:16:43;12.10;58.20
45233;DHT22;30969;51.052;17.056;2023-10-09T00:21:49;12.10;58.60
45233;DHT22;30969;51.052;17.056;2023-10-09T00:26:58;12.00;58.20
45233;DHT22;30969;51.052;17.056;2023-10-09T00:32:14;12.00;59.20
45233;DHT22;30969;51.052;17.056;2023-10-09T00:37:24;11.90;58.10
45233;DHT22;30969;51.052;17.056;2023-10-09T00:42:37;11.90;58.20
45233;DHT22;30969;51.052;17.056;2023-10-09T00:47:41;11.90;58.40
45233;DHT22;30969;51.052;17.056;2023-10-09T00:52:47;11.90;58.40
45233;DHT22;30969;51.052;17.056;2023-10-09T00:57:54;11.90;58.50
45233;DHT22;30969;51.052;17.056;2023-10-09T01:03:01;11.90;58.40
45233;DHT22;30969;51.052;17.056;2023-10-09T01:08:27;11.80;58.10
45233;DHT22;30969;51.052;17.056;2023-10-09T01:13:47;11.90;58.20
45233;DHT22;30969;51.052;17.056;2023-10-09T01:18:58;11.90;58.30
45233;DHT22;30969;51.052;17.056;2023-10-09T01:24:03;11.80;58.50
45233;DHT22;30969;51.052;17.056;2023-10-09T01:29:13;11.80;58.90
45233;DHT22;30969;51.052;17.056;2023-10-09T01:34:21;11.80;59.20
45233;DHT22;30969;51.052;17.056;2023-10-09T01:39:29;11.70;59.40
45233;DHT22;30969;51.052;17.056;2023-10-09T01:44:33;11.70;59.50
45233;DHT22;30969;51.052;17.056;2023-10-09T01:49:37;11.70;59.90
45233;DHT22;30969;51.052;17.056;2023-10-09T01:54:45;11.60;60.20
45233;DHT22;30969;51.052;17.056;2023-10-09T01:59:51;11.60;60.40
45233;DHT22;30969;51.052;17.056;2023-10-09T02:04:58;11.60;60.50
45233;DHT22;30969;51.052;17.056;2023-10-09T02:10:26;11.50;60.50
45233;DHT22;30969;51.052;17.056;2023-10-09T02:15:35;11.50;60.20
45233;DHT22;30969;51.052;17.056;2023-10-09T02:21:04;11.50;60.00
45233;DHT22;30969;51.052;17.056;2023-10-09T02:26:17;11.50;60.00
45233;DHT22;30969;51.052;17.056;2023-10-09T02:31:22;11.50;60.00
45233;DHT22;30969;51.052;17.056;2023-10-09T02:36:28;11.50;60.10
45233;DHT22;30969;51.052;17.056;2023-10-09T02:41:34;11.50;60.50
45233;DHT22;30969;51.052;17.056;2023-10-09T02:46:51;11.50;60.50
45233;DHT22;30969;51.052;17.056;2023-10-09T02:51:59;11.50;60.70
45233;DHT22;30969;51.052;17.056;2023-10-09T02:57:10;11.50;61.00
45233;DHT22;30969;51.052;17.056;2023-10-09T03:02:24;11.40;61.10
45233;DHT22;30969;51.052;17.056;2023-10-09T03:07:27;11.40;61.30
45233;DHT22;30969;51.052;17.056;2023-10-09T03:12:32;11.40;61.40
45233;DHT22;30969;51.052;17.056;2023-10-09T03:17:36;11.40;61.50
45233;DHT22;30969;51.052;17.056;2023-10-09T03:22:40;11.40;62.00
45233;DHT22;30969;51.052;17.056;2023-10-09T03:27:46;11.30;62.20
45233;DHT22;30969;51.052;17.056;2023-10-09T03:32:49;11.30;62.50
45233;DHT22;30969;51.052;17.056;2023-10-09T03:37:54;11.30;62.80
45233;DHT22;30969;51.052;17.056;2023-10-09T03:43:04;11.20;63.10
45233;DHT22;30969;51.052;17.056;2023-10-09T03:48:08;11.20;63.40
45233;DHT22;30969;51.052;17.056;2023-10-09T03:53:17;11.10;63.60
45233;DHT22;30969;51.052;17.056;2023-10-09T03:58:23;11.10;63.80
45233;DHT22;30969;51.052;17.056;2023-10-09T04:03:33;11.10;64.20
45233;DHT22;30969;51.052;17.056;2023-10-09T04:08:39;11.10;64.50
45233;DHT22;30969;51.052;17.056;2023-10-09T04:13:50;11.00;64.60
45233;DHT22;30969;51.052;17.056;2023-10-09T04:18:55;11.00;64.80
45233;DHT22;30969;51.052;17.056;2023-10-09T04:24:00;11.00;65.00
45233;DHT22;30969;51.052;17.056;2023-10-09T04:29:24;10.90;65.30
45233;DHT22;30969;51.052;17.056;2023-10-09T04:34:39;10.90;65.80
45233;DHT22;30969;51.052;17.056;2023-10-09T04:39:50;10.90;66.10
45233;DHT22;30969;51.052;17.056;2023-10-09T04:45:14;10.90;66.40
45233;DHT22;30969;51.052;17.056;2023-10-09T04:50:37;10.80;66.60
45233;DHT22;30969;51.052;17.056;2023-10-09T04:56:09;10.80;67.90
45233;DHT22;30969;51.052;17.056;2023-10-09T05:01:19;10.80;67.30
45233;DHT22;30969;51.052;17.056;2023-10-09T05:06:38;10.70;67.10
45233;DHT22;30969;51.052;17.056;2023-10-09T05:11:55;10.70;66.90
45233;DHT22;30969;51.052;17.056;2023-10-09T05:17:13;10.70;67.10
45233;DHT22;30969;51.052;17.056;2023-10-09T05:22:18;10.70;67.00
45233;DHT22;30969;51.052;17.056;2023-10-09T05:27:38;10.70;67.00
45233;DHT22;30969;51.052;17.056;2023-10-09T05:32:55;10.70;67.10
45233;DHT22;30969;51.052;17.056;2023-10-09T05:38:01;10.70;67.20
45233;DHT22;30969;51.052;17.056;2023-10-09T05:43:06;10.70;67.70
45233;DHT22;30969;51.052;17.056;2023-10-09T05:48:10;10.70;68.30
45233;DHT22;30969;51.052;17.056;2023-10-09T05:53:32;10.70;68.60
45233;DHT22;30969;51.052;17.056;2023-10-09T05:58:58;10.70;68.60
45233;DHT22;30969;51.052;17.056;2023-10-09T06:04:21;10.60;68.50
45233;DHT22;30969;51.052;17.056;2023-10-09T06:09:36;10.60;67.90
45233;DHT22;30969;51.052;17.056;2023-10-09T06:14:58;10.60;68.90
45233;DHT22;30969;51.052;17.056;2023-10-09T06:20:22;10.70;67.60
45233;DHT22;30969;51.052;17.056;2023-10-09T06:26:05;10.70;67.60
45233;DHT22;30969;51.052;17.056;2023-10-09T06:31:26;10.70;67.30
45233;DHT22;30969;51.052;17.056;2023-10-09T06:36:55;10.70;67.60
45233;DHT22;30969;51.052;17.056;2023-10-09T06:42:04;10.70;68.30
45233;DHT22;30969;51.052;17.056;2023-10-09T06:47:32;10.80;68.30
45233;DHT22;30969;51.052;17.056;2023-10-09T06:52:45;10.80;68.40
45233;DHT22;30969;51.052;17.056;2023-10-09T06:58:28;10.80;68.40
45233;DHT22;30969;51.052;17.056;2023-10-09T07:03:43;10.80;68.50
45233;DHT22;30969;51.052;17.056;2023-10-09T07:08:57;10.80;68.80
45233;DHT22;30969;51.052;17.056;2023-10-09T07:14:19;10.80;69.20
45233;DHT22;30969;51.052;17.056;2023-10-09T07:19:55;10.80;69.30
45233;DHT22;30969;51.052;17.056;2023-10-09T07:25:17;10.80;69.30
45233;DHT22;30969;51.052;17.056;2023-10-09T07:30:30;10.80;69.30
45233;DHT22;30969;51.052;17.056;2023-10-09T07:35:40;10.80;69.60
45233;DHT22;30969;51.052;17.056;2023-10-09T07:40:51;10.80;69.80
45233;DHT22;30969;51.052;17.056;2023-10-09T07:46:23;10.80;70.00
45233;DHT22;30969;51.052;17.056;2023-10-09T07:51:37;10.80;70.00
45233;DHT22;30969;51.052;17.056;2023-10-09T07:56:42;10.90;70.10
45233;DHT22;30969;51.052;17.056;2023-10-09T08:01:48;10.90;70.10
45233;DHT22;30969;51.052;17.056;2023-10-09T08:06:55;10.90;70.20
45233;DHT22;30969;51.052;17.056;2023-10-09T08:12:23;10.90;70.30
45233;DHT22;30969;51.052;17.056;2023-10-09T08:17:58;11.00;70.60
45233;DHT22;30969;51.052;17.056;2023-10-09T08:23:06;11.00;70.80
45233;DHT22;30969;51.052;17.056;2023-10-09T08:28:25;11.00;70.70
45233;DHT22;30969;51.052;17.056;2023-10-09T08:33:45;11.00;71.20
45233;DHT22;30969;51.052;17.056;2023-10-09T08:39:02;11.00;71.40
45233;DHT22;30969;51.052;17.056;2023-10-09T08:44:20;11.10;71.20
45233;DHT22;30969;51.052;17.056;2023-10-09T08:49:27;11.10;70.90
45233;DHT22;30969;51.052;17.056;2023-10-09T08:54:31;11.20;70.90
45233;DHT22;30969;51.052;17.056;2023-10-09T08:59:41;11.20;70.50
45233;DHT22;30969;51.052;17.056;2023-10-09T09:04:48;11.20;70.40
45233;DHT22;30969;51.052;17.056;2023-10-09T09:09:56;11.20;70.50
45233;DHT22;30969;51.052;17.056;2023-10-09T09:15:06;11.20;70.60
45233;DHT22;30969;51.052;17.056;2023-10-09T09:20:21;11.20;70.80
45233;DHT22;30969;51.052;17.056;2023-10-09T09:25:28;11.20;70.70
45233;DHT22;30969;51.052;17.056;2023-10-09T09:30:43;11.20;70.60
45233;DHT22;30969;51.052;17.056;2023-10-09T09:35:56;11.20;70.80
45233;DHT22;30969;51.052;17.056;2023-10-09T09:41:00;11.20;70.90
45233;DHT22;30969;51.052;17.056;2023-10-09T09:46:07;11.20;70.90
45233;DHT22;30969;51.052;17.056;2023-10-09T09:51:13;11.20;70.90
45233;DHT22;30969;51.052;17.056;2023-10-09T09:56:19;11.20;71.00
45233;DHT22;30969;51.052;17.056;2023-10-09T10:01:26;11.20;71.10
45233;DHT22;30969;51.052;17.056;2023-10-09T10:06:34;11.20;71.40
45233;DHT22;30969;51.052;17.056;2023-10-09T10:11:41;11.20;71.60
45233;DHT22;30969;51.052;17.056;2023-10-09T10:17:04;11.20;72.00
45233;DHT22;30969;51.052;17.056;2023-10-09T10:22:23;11.20;71.90
45233;DHT22;30969;51.052;17.056;2023-10-09T10:27:29;11.20;71.90
45233;DHT22;30969;51.052;17.056;2023-10-09T10:37:55;11.20;71.90
45233;DHT22;30969;51.052;17.056;2023-10-09T10:43:14;11.20;71.70
45233;DHT22;30969;51.052;17.056;2023-10-09T10:48:35;11.20;71.70
45233;DHT22;30969;51.052;17.056;2023-10-09T10:53:51;11.30;71.50
45233;DHT22;30969;51.052;17.056;2023-10-09T10:58:59;11.30;71.30
45233;DHT22;30969;51.052;17.056;2023-10-09T11:04:16;11.30;71.20
45233;DHT22;30969;51.052;17.056;2023-10-09T11:09:28;11.30;71.10
45233;DHT22;30969;51.052;17.056;2023-10-09T11:14:54;11.40;71.10
45233;DHT22;30969;51.052;17.056;2023-10-09T11:20:10;11.40;71.20
45233;DHT22;30969;51.052;17.056;2023-10-09T11:25:29;11.40;71.30
45233;DHT22;30969;51.052;17.056;2023-10-09T11:30:33;11.30;71.20
45233;DHT22;30969;51.052;17.056;2023-10-09T11:35:36;11.40;71.10
45233;DHT22;30969;51.052;17.056;2023-10-09T11:40:41;11.40;70.70
45233;DHT22;30969;51.052;17.056;2023-10-09T11:46:10;11.40;70.70
45233;DHT22;30969;51.052;17.056;2023-10-09T11:51:25;11.40;70.60
45233;DHT22;30969;51.052;17.056;2023-10-09T11:56:30;11.50;70.90
45233;DHT22;30969;51.052;17.056;2023-10-09T12:01:34;11.60;70.30
45233;DHT22;30969;51.052;17.056;2023-10-09T12:06:40;11.60;70.00
45233;DHT22;30969;51.052;17.056;2023-10-09T12:11:47;11.60;69.90
45233;DHT22;30969;51.052;17.056;2023-10-09T12:17:04;11.60;69.90
45233;DHT22;30969;51.052;17.056;2023-10-09T12:22:08;11.70;70.00
45233;DHT22;30969;51.052;17.056;2023-10-09T12:27:19;11.70;70.00
45233;DHT22;30969;51.052;17.056;2023-10-09T12:32:24;11.80;69.60
45233;DHT22;30969;51.052;17.056;2023-10-09T12:37:27;11.80;69.20
45233;DHT22;30969;51.052;17.056;2023-10-09T12:42:35;11.80;68.50
45233;DHT22;30969;51.052;17.056;2023-10-09T12:47:38;11.90;68.30
45233;DHT22;30969;51.052;17.056;2023-10-09T12:52:44;11.90;68.30
45233;DHT22;30969;51.052;17.056;2023-10-09T12:57:52;11.90;68.00
45233;DHT22;30969;51.052;17.056;2023-10-09T13:02:57;11.90;67.70
45233;DHT22;30969;51.052;17.056;2023-10-09T13:08:04;11.90;67.80
45233;DHT22;30969;51.052;17.056;2023-10-09T13:13:11;12.00;67.90
45233;DHT22;30969;51.052;17.056;2023-10-09T13:18:14;12.00;67.80
45233;DHT22;30969;51.052;17.056;2023-10-09T13:23:18;12.00;67.80
45233;DHT22;30969;51.052;17.056;2023-10-09T13:28:25;12.00;67.80
45233;DHT22;30969;51.052;17.056;2023-10-09T13:33:28;12.00;67.90
45233;DHT22;30969;51.052;17.056;2023-10-09T13:38:39;12.00;67.80
45233;DHT22;30969;51.052;17.056;2023-10-09T13:43:46;12.00;67.60
45233;DHT22;30969;51.052;17.056;2023-10-09T13:48:54;12.00;67.80
45233;DHT22;30969;51.052;17.056;2023-10-09T13:53:57;12.00;67.50
45233;DHT22;30969;51.052;17.056;2023-10-09T13:59:03;12.10;67.50
45233;DHT22;30969;51.052;17.056;2023-10-09T14:04:13;12.00;67.40
45233;DHT22;30969;51.052;17.056;2023-10-09T14:09:20;12.10;68.20
45233;DHT22;30969;51.052;17.056;2023-10-09T14:14:36;12.10;67.30
45233;DHT22;30969;51.052;17.056;2023-10-09T14:19:41;12.10;67.20
45233;DHT22;30969;51.052;17.056;2023-10-09T14:24:49;12.10;67.30
45233;DHT22;30969;51.052;17.056;2023-10-09T14:29:59;12.10;67.10
45233;DHT22;30969;51.052;17.056;2023-10-09T14:35:03;12.10;67.10
45233;DHT22;30969;51.052;17.056;2023-10-09T14:40:15;12.10;67.60
45233;DHT22;30969;51.052;17.056;2023-10-09T14:45:25;12.10;67.60
45233;DHT22;30969;51.052;17.056;2023-10-09T14:50:29;12.10;67.30
45233;DHT22;30969;51.052;17.056;2023-10-09T14:55:35;12.10;67.20
45233;DHT22;30969;51.052;17.056;2023-10-09T15:00:42;12.00;67.10
45233;DHT22;30969;51.052;17.056;2023-10-09T15:05:48;12.10;67.20
45233;DHT22;30969;51.052;17.056;2023-10-09T15:10:52;12.10;67.10
45233;DHT22;30969;51.052;17.056;2023-10-09T15:16:00;12.10;67.00
45233;DHT22;30969;51.052;17.056;2023-10-09T15:21:04;12.00;67.00
45233;DHT22;30969;51.052;17.056;2023-10-09T15:26:08;12.00;66.90
45233;DHT22;30969;51.052;17.056;2023-10-09T15:31:14;12.00;67.00
45233;DHT22;30969;51.052;17.056;2023-10-09T15:36:18;12.00;66.90
45233;DHT22;30969;51.052;17.056;2023-10-09T15:41:27;12.00;67.10
45233;DHT22;30969;51.052;17.056;2023-10-09T15:46:33;12.00;68.00
45233;DHT22;30969;51.052;17.056;2023-10-09T15:51:37;12.00;67.00
45233;DHT22;30969;51.052;17.056;2023-10-09T15:56:40;12.00;67.00
45233;DHT22;30969;51.052;17.056;2023-10-09T16:01:53;12.00;67.00
45233;DHT22;30969;51.052;17.056;2023-10-09T16:06:57;11.90;67.00
45233;DHT22;30969;51.052;17.056;2023-10-09T16:12:00;11.90;67.10
45233;DHT22;30969;51.052;17.056;2023-10-09T16:17:05;11.90;67.10
45233;DHT22;30969;51.052;17.056;2023-10-09T16:22:14;11.90;67.20
45233;DHT22;30969;51.052;17.056;2023-10-09T16:27:17;11.90;67.20
45233;DHT22;30969;51.052;17.056;2023-10-09T16:32:27;11.90;67.10
45233;DHT22;30969;51.052;17.056;2023-10-09T16:37:30;11.80;67.00
45233;DHT22;30969;51.052;17.056;2023-10-09T16:42:36;11.80;67.00
45233;DHT22;30969;51.052;17.056;2023-10-09T16:47:41;11.80;67.00
45233;DHT22;30969;51.052;17.056;2023-10-09T16:52:44;11.80;67.10
45233;DHT22;30969;51.052;17.056;2023-10-09T16:57:48;11.80;67.10
45233;DHT22;30969;51.052;17.056;2023-10-09T17:02:54;11.80;67.10
45233;DHT22;30969;51.052;17.056;2023-10-09T17:07:58;11.80;67.20
45233;DHT22;30969;51.052;17.056;2023-10-09T17:13:02;11.80;67.20
45233;DHT22;30969;51.052;17.056;2023-10-09T17:18:10;11.80;67.20
45233;DHT22;30969;51.052;17.056;2023-10-09T17:23:15;11.80;67.20
45233;DHT22;30969;51.052;17.056;2023-10-09T17:28:19;11.80;67.30
45233;DHT22;30969;51.052;17.056;2023-10-09T17:33:24;11.80;67.40
45233;DHT22;30969;51.052;17.056;2023-10-09T17:38:28;11.70;67.30
45233;DHT22;30969;51.052;17.056;2023-10-09T17:43:32;11.70;67.20
45233;DHT22;30969;51.052;17.056;2023-10-09T17:48:38;11.70;67.20
45233;DHT22;30969;51.052;17.056;2023-10-09T17:53:43;11.70;67.20
45233;DHT22;30969;51.052;17.056;2023-10-09T17:58:48;11.70;67.20
45233;DHT22;30969;51.052;17.056;2023-10-09T18:03:54;11.70;67.20
45233;DHT22;30969;51.052;17.056;2023-10-09T18:09:01;11.70;67.30
45233;DHT22;30969;51.052;17.056;2023-10-09T18:14:18;11.70;67.30
45233;DHT22;30969;51.052;17.056;2023-10-09T18:19:23;11.60;67.30
45233;DHT22;30969;51.052;17.056;2023-10-09T18:24:26;11.60;67.40
45233;DHT22;30969;51.052;17.056;2023-10-09T18:29:29;11.60;67.40
45233;DHT22;30969;51.052;17.056;2023-10-09T18:34:35;11.60;67.50
45233;DHT22;30969;51.052;17.056;2023-10-09T18:39:40;11.60;67.50
45233;DHT22;30969;51.052;17.056;2023-10-09T18:44:43;11.60;67.50
45233;DHT22;30969;51.052;17.056;2023-10-09T18:49:49;11.60;67.60
45233;DHT22;30969;51.052;17.056;2023-10-09T18:54:53;11.60;67.50
45233;DHT22;30969;51.052;17.056;2023-10-09T18:59:57;11.60;67.60
45233;DHT22;30969;51.052;17.056;2023-10-09T19:05:05;11.60;67.70
45233;DHT22;30969;51.052;17.056;2023-10-09T19:10:10;11.60;67.70
45233;DHT22;30969;51.052;17.056;2023-10-09T19:15:22;11.60;67.60
45233;DHT22;30969;51.052;17.056;2023-10-09T19:20:31;11.50;67.60
45233;DHT22;30969;51.052;17.056;2023-10-09T19:25:35;11.50;67.60
45233;DHT22;30969;51.052;17.056;2023-10-09T19:30:40;11.50;67.60
45233;DHT22;30969;51.052;17.056;2023-10-09T19:35:45;11.50;67.70
45233;DHT22;30969;51.052;17.056;2023-10-09T19:40:49;11.50;67.80
45233;DHT22;30969;51.052;17.056;2023-10-09T19:46:00;11.50;67.80
45233;DHT22;30969;51.052;17.056;2023-10-09T19:51:06;11.50;67.90
45233;DHT22;30969;51.052;17.056;2023-10-09T19:56:10;11.50;68.10
45233;DHT22;30969;51.052;17.056;2023-10-09T20:01:14;11.50;68.00
45233;DHT22;30969;51.052;17.056;2023-10-09T20:06:20;11.50;68.10
45233;DHT22;30969;51.052;17.056;2023-10-09T20:11:23;11.50;68.10
45233;DHT22;30969;51.052;17.056;2023-10-09T20:16:28;11.50;68.10
45233;DHT22;30969;51.052;17.056;2023-10-09T20:21:40;11.40;68.10
45233;DHT22;30969;51.052;17.056;2023-10-09T20:26:45;11.40;68.10
45233;DHT22;30969;51.052;17.056;2023-10-09T20:31:48;11.50;68.30
45233;DHT22;30969;51.052;17.056;2023-10-09T20:36:53;11.40;68.10
45233;DHT22;30969;51.052;17.056;2023-10-09T20:41:59;11.50;68.20
45233;DHT22;30969;51.052;17.056;2023-10-09T20:47:03;11.40;68.10
45233;DHT22;30969;51.052;17.056;2023-10-09T20:52:08;11.40;68.20
45233;DHT22;30969;51.052;17.056;2023-10-09T20:57:11;11.40;68.30
45233;DHT22;30969;51.052;17.056;2023-10-09T21:02:16;11.40;68.40
45233;DHT22;30969;51.052;17.056;2023-10-09T21:07:23;11.40;68.40
45233;DHT22;30969;51.052;17.056;2023-10-09T21:12:26;11.40;68.60
45233;DHT22;30969;51.052;17.056;2023-10-09T21:17:30;11.40;68.60
45233;DHT22;30969;51.052;17.056;2023-10-09T21:22:36;11.40;68.70
45233;DHT22;30969;51.052;17.056;2023-10-09T21:27:40;11.30;68.80
45233;DHT22;30969;51.052;17.056;2023-10-09T21:32:44;11.30;69.00
45233;DHT22;30969;51.052;17.056;2023-10-09T21:37:50;11.40;69.40
45233;DHT22;30969;51.052;17.056;2023-10-09T21:42:54;11.30;69.60
45233;DHT22;30969;51.052;17.056;2023-10-09T21:47:58;11.30;70.50
45233;DHT22;30969;51.052;17.056;2023-10-09T21:53:03;11.30;69.50
45233;DHT22;30969;51.052;17.056;2023-10-09T21:58:07;11.30;69.60
45233;DHT22;30969;51.052;17.056;2023-10-09T22:03:12;11.30;69.60
45233;DHT22;30969;51.052;17.056;2023-10-09T22:08:19;11.30;69.60
45233;DHT22;30969;51.052;17.056;2023-10-09T22:13:23;11.20;69.70
45233;DHT22;30969;51.052;17.056;2023-10-09T22:18:28;11.20;69.80
45233;DHT22;30969;51.052;17.056;2023-10-09T22:23:34;11.20;69.60
45233;DHT22;30969;51.052;17.056;2023-10-09T22:28:38;11.30;69.50
45233;DHT22;30969;51.052;17.056;2023-10-09T22:33:42;11.30;69.50
45233;DHT22;30969;51.052;17.056;2023-10-09T22:38:53;11.30;69.80
45233;DHT22;30969;51.052;17.056;2023-10-09T22:43:58;11.20;69.90
45233;DHT22;30969;51.052;17.056;2023-10-09T22:49:01;11.20;70.00
45233;DHT22;30969;51.052;17.056;2023-10-09T22:54:18;11.20;70.10
45233;DHT22;30969;51.052;17.056;2023-10-09T22:59:32;11.20;70.20
45233;DHT22;30969;51.052;17.056;2023-10-09T23:04:47;11.20;70.00
45233;DHT22;30969;51.052;17.056;2023-10-09T23:09:52;11.20;70.10
45233;DHT22;30969;51.052;17.056;2023-10-09T23:15:17;11.20;70.20
45233;DHT22;30969;51.052;17.056;2023-10-09T23:20:35;11.20;70.20
45233;DHT22;30969;51.052;17.056;2023-10-09T23:25:52;11.20;70.50
45233;DHT22;30969;51.052;17.056;2023-10-09T23:30:56;11.20;70.30
45233;DHT22;30969;51.052;17.056;2023-10-09T23:36:00;11.20;70.30
45233;DHT22;30969;51.052;17.056;2023-10-09T23:41:08;11.20;70.80
45233;DHT22;30969;51.052;17.056;2023-10-09T23:46:13;11.10;70.70
45233;DHT22;30969;51.052;17.056;2023-10-09T23:51:19;11.10;70.60
45233;DHT22;30969;51.052;17.056;2023-10-09T23:56:24;11.10;70.70
